createdAt,value
2022-10-15T09:36:01.930Z,15.07
2022-10-15T09:37:16.157Z,15.14
2022-10-15T09:38:34.002Z,15.25
2022-10-15T09:40:04.228Z,15.24
2022-10-15T09:41:34.959Z,15.29
2022-10-15T09:42:39.127Z,15.28
2022-10-15T09:43:41.550Z,15.39
2022-10-15T09:44:45.669Z,15.44
2022-10-15T09:45:47.026Z,15.50
2022-10-15T09:46:51.266Z,15.55
2022-10-15T09:47:57.881Z,15.65
2022-10-15T09:49:08.969Z,15.87
2022-10-15T09:50:13.424Z,16.10
2022-10-15T09:51:34.101Z,16.41
2022-10-15T09:53:03.816Z,17.06
2022-10-15T09:54:25.391Z,18.04
2022-10-15T09:55:45.621Z,19.68
2022-10-15T09:56:52.535Z,19.56
2022-10-15T09:57:58.591Z,19.97
2022-10-15T09:59:00.000Z,21.02
2022-10-15T10:00:08.803Z,21.45
2022-10-15T10:01:19.672Z,20.54
2022-10-15T10:02:24.167Z,20.07
2022-10-15T10:03:28.898Z,20.02
2022-10-15T10:04:33.058Z,19.64
2022-10-15T10:05:39.636Z,19.27
2022-10-15T10:12:04.788Z,17.82
2022-10-15T10:13:21.277Z,18.16
2022-10-15T10:14:33.497Z,20.42
2022-10-15T10:15:38.940Z,20.97
2022-10-15T10:17:04.126Z,21.35
2022-10-15T10:18:06.613Z,19.93
2022-10-15T10:19:15.423Z,20.46
2022-10-15T10:20:20.234Z,21.14
2022-10-15T10:21:34.898Z,21.43
2022-10-15T10:22:54.777Z,20.23
2022-10-15T10:23:58.918Z,18.95
2022-10-15T10:25:00.518Z,18.92
2022-10-15T10:26:04.824Z,18.88
2022-10-15T10:27:18.629Z,19.79
2022-10-15T10:28:46.671Z,20.71
2022-10-15T10:35:05.609Z,17.97
2022-10-15T10:37:15.680Z,16.86
2022-10-15T10:38:38.109Z,16.89
2022-10-15T10:39:39.494Z,16.68
2022-10-15T10:40:40.885Z,16.57
2022-10-15T10:59:56.274Z,16.55
2022-10-15T11:00:58.275Z,16.54
2022-10-15T11:01:59.760Z,16.36
2022-10-15T11:03:01.436Z,16.37
2022-10-15T11:04:03.729Z,16.33
2022-10-15T11:05:05.550Z,16.27
2022-10-15T11:18:23.003Z,16.60
2022-10-15T11:19:59.713Z,16.56
2022-10-15T11:21:25.570Z,16.81
2022-10-15T11:22:41.852Z,16.86
2022-10-15T11:25:33.501Z,17.08
2022-10-15T11:26:41.606Z,17.10
2022-10-15T11:28:08.890Z,16.78
2022-10-15T11:29:30.486Z,16.87
2022-10-15T11:30:55.126Z,16.88
2022-10-15T11:32:25.933Z,16.91
2022-10-15T11:33:43.550Z,17.19
2022-10-15T11:35:40.829Z,18.64
2022-10-15T11:36:58.942Z,18.63
2022-10-15T11:38:27.393Z,18.28
2022-10-15T11:40:05.133Z,17.77
2022-10-15T11:41:25.446Z,17.38
2022-10-15T11:42:41.474Z,17.30
2022-10-15T11:44:10.641Z,17.51
2022-10-15T11:45:40.684Z,17.18
2022-10-15T11:46:50.902Z,16.92
2022-10-15T12:06:14.232Z,15.93
2022-10-15T13:46:05.853Z,14.93
2022-10-15T14:33:54.511Z,14.84
2022-10-15T14:35:00.901Z,15.06
2022-10-15T14:36:08.776Z,15.21
2022-10-15T14:37:28.678Z,15.20
2022-10-15T14:38:30.234Z,15.19
2022-10-15T14:39:36.530Z,15.38
2022-10-15T15:00:26.637Z,16.03
2022-10-15T15:01:29.542Z,16.15
2022-10-15T15:02:31.005Z,16.63
2022-10-15T15:03:41.118Z,16.63
2022-10-15T15:04:45.613Z,16.43
2022-10-15T15:05:48.433Z,16.40
2022-10-15T15:06:49.780Z,16.28
2022-10-15T15:07:51.391Z,16.23
2022-10-15T15:08:52.884Z,16.05
2022-10-15T15:09:54.255Z,16.18
2022-10-15T15:10:59.690Z,16.19
2022-10-15T15:12:01.163Z,16.03
2022-10-15T15:13:02.862Z,16.02
2022-10-15T15:14:04.260Z,16.09
2022-10-15T15:15:17.521Z,16.13
2022-10-15T15:16:19.245Z,16.08
2022-10-15T15:17:23.998Z,16.04
2022-10-15T15:34:43.308Z,17.85
2022-10-15T15:35:52.520Z,18.04
2022-10-15T15:36:53.986Z,17.60
2022-10-15T15:37:55.562Z,17.22
2022-10-15T15:38:58.930Z,16.94
2022-10-15T15:40:00.294Z,16.81
2022-10-15T15:41:04.577Z,16.70
2022-10-15T15:42:05.925Z,16.75
2022-10-15T15:43:08.592Z,16.78
2022-10-15T15:44:12.060Z,16.93
2022-10-15T15:45:25.000Z,16.61
2022-10-15T16:29:20.441Z,14.78
2022-10-15T16:30:21.831Z,14.83
